sensor_id;sensor_type;location;lat;lon;timestamp;P1;durP1;ratioP1;P2;durP2;ratioP2
16242;SDS011;11719;51.052;6.982;2023-04-29T00:02:18;3.20;;;1.83;;
16242;SDS011;11719;51.052;6.982;2023-04-29T00:04:44;3.70;;;1.90;;
16242;SDS011;11719;51.052;6.982;2023-04-29T00:07:09;3.73;;;1.87;;
16242;SDS011;11719;51.052;6.982;2023-04-29T00:09:39;4.77;;;2.27;;
16242;SDS011;11719;51.052;6.982;2023-04-29T00:12:05;2.27;;;1.37;;
16242;SDS011;11719;51.052;6.982;2023-04-29T00:14:31;4.17;;;1.80;;
16242;SDS011;11719;51.052;6.982;2023-04-29T00:16:57;1.63;;;1.30;;
16242;SDS011;11719;51.052;6.982;2023-04-29T00:19:22;2.17;;;1.47;;
16242;SDS011;11719;51.052;6.982;2023-04-29T00:21:49;4.57;;;1.17;;
16242;SDS011;11719;51.052;6.982;2023-04-29T00:24:15;2.73;;;1.03;;
16242;SDS011;11719;51.052;6.982;2023-04-29T00:26:41;1.40;;;0.80;;
16242;SDS011;11719;51.052;6.982;2023-04-29T00:29:06;1.87;;;1.03;;
16242;SDS011;11719;51.052;6.982;2023-04-29T00:31:32;2.43;;;1.33;;
16242;SDS011;11719;51.052;6.982;2023-04-29T00:33:58;1.73;;;1.30;;
16242;SDS011;11719;51.052;6.982;2023-04-29T00:36:24;1.80;;;1.20;;
16242;SDS011;11719;51.052;6.982;2023-04-29T00:38:50;2.07;;;1.33;;
16242;SDS011;11719;51.052;6.982;2023-04-29T00:41:16;3.67;;;1.43;;
16242;SDS011;11719;51.052;6.982;2023-04-29T00:43:41;2.97;;;1.73;;
16242;SDS011;11719;51.052;6.982;2023-04-29T00:46:07;1.67;;;0.97;;
16242;SDS011;11719;51.052;6.982;2023-04-29T00:48:33;2.73;;;1.27;;
16242;SDS011;11719;51.052;6.982;2023-04-29T00:50:59;2.50;;;1.63;;
16242;SDS011;11719;51.052;6.982;2023-04-29T00:53:25;4.13;;;1.73;;
16242;SDS011;11719;51.052;6.982;2023-04-29T00:55:51;5.97;;;2.73;;
16242;SDS011;11719;51.052;6.982;2023-04-29T00:58:18;7.27;;;2.67;;
16242;SDS011;11719;51.052;6.982;2023-04-29T01:00:44;4.83;;;2.33;;
16242;SDS011;11719;51.052;6.982;2023-04-29T01:03:11;7.23;;;2.97;;
16242;SDS011;11719;51.052;6.982;2023-04-29T01:05:37;8.33;;;3.60;;
16242;SDS011;11719;51.052;6.982;2023-04-29T01:11:08;5.57;;;3.17;;
16242;SDS011;11719;51.052;6.982;2023-04-29T01:13:49;8.83;;;4.80;;
16242;SDS011;11719;51.052;6.982;2023-04-29T01:16:28;10.27;;;4.70;;
16242;SDS011;11719;51.052;6.982;2023-04-29T01:19:05;11.60;;;5.50;;
16242;SDS011;11719;51.052;6.982;2023-04-29T01:22:01;10.33;;;4.43;;
16242;SDS011;11719;51.052;6.982;2023-04-29T01:24:26;13.70;;;6.40;;
16242;SDS011;11719;51.052;6.982;2023-04-29T01:26:56;13.63;;;6.20;;
16242;SDS011;11719;51.052;6.982;2023-04-29T01:29:55;10.23;;;4.77;;
16242;SDS011;11719;51.052;6.982;2023-04-29T01:32:48;16.83;;;6.40;;
16242;SDS011;11719;51.052;6.982;2023-04-29T01:38:32;13.13;;;6.07;;
16242;SDS011;11719;51.052;6.982;2023-04-29T01:44:07;11.77;;;6.43;;
16242;SDS011;11719;51.052;6.982;2023-04-29T01:46:45;13.67;;;7.00;;
16242;SDS011;11719;51.052;6.982;2023-04-29T01:49:19;17.17;;;7.23;;
16242;SDS011;11719;51.052;6.982;2023-04-29T01:51:46;17.10;;;7.03;;
16242;SDS011;11719;51.052;6.982;2023-04-29T01:54:11;16.10;;;7.63;;
16242;SDS011;11719;51.052;6.982;2023-04-29T01:56:37;13.63;;;6.00;;
16242;SDS011;11719;51.052;6.982;2023-04-29T01:59:03;13.10;;;6.07;;
16242;SDS011;11719;51.052;6.982;2023-04-29T02:01:29;15.97;;;6.37;;
16242;SDS011;11719;51.052;6.982;2023-04-29T02:03:55;16.70;;;7.40;;
16242;SDS011;11719;51.052;6.982;2023-04-29T02:06:21;15.03;;;6.83;;
16242;SDS011;11719;51.052;6.982;2023-04-29T02:08:46;15.30;;;6.80;;
16242;SDS011;11719;51.052;6.982;2023-04-29T02:11:13;16.63;;;6.73;;
16242;SDS011;11719;51.052;6.982;2023-04-29T02:13:39;12.40;;;5.90;;
16242;SDS011;11719;51.052;6.982;2023-04-29T02:16:08;13.87;;;7.93;;
16242;SDS011;11719;51.052;6.982;2023-04-29T02:18:36;19.00;;;7.63;;
16242;SDS011;11719;51.052;6.982;2023-04-29T02:21:02;15.33;;;6.33;;
16242;SDS011;11719;51.052;6.982;2023-04-29T02:23:28;14.80;;;6.97;;
16242;SDS011;11719;51.052;6.982;2023-04-29T02:25:54;16.63;;;7.30;;
16242;SDS011;11719;51.052;6.982;2023-04-29T02:28:20;22.00;;;8.80;;
16242;SDS011;11719;51.052;6.982;2023-04-29T02:30:47;13.47;;;6.93;;
16242;SDS011;11719;51.052;6.982;2023-04-29T02:33:13;14.30;;;6.53;;
16242;SDS011;11719;51.052;6.982;2023-04-29T02:35:40;21.47;;;7.90;;
16242;SDS011;11719;51.052;6.982;2023-04-29T02:38:06;17.37;;;7.53;;
16242;SDS011;11719;51.052;6.982;2023-04-29T02:40:32;15.17;;;7.17;;
16242;SDS011;11719;51.052;6.982;2023-04-29T02:42:57;16.80;;;6.90;;
16242;SDS011;11719;51.052;6.982;2023-04-29T02:45:23;16.70;;;7.20;;
16242;SDS011;11719;51.052;6.982;2023-04-29T02:47:49;16.67;;;6.83;;
16242;SDS011;11719;51.052;6.982;2023-04-29T02:50:15;16.67;;;6.23;;
16242;SDS011;11719;51.052;6.982;2023-04-29T02:52:41;17.57;;;7.87;;
16242;SDS011;11719;51.052;6.982;2023-04-29T02:55:07;17.80;;;7.23;;
16242;SDS011;11719;51.052;6.982;2023-04-29T02:57:33;18.10;;;7.90;;
16242;SDS011;11719;51.052;6.982;2023-04-29T02:59:59;17.93;;;8.27;;
16242;SDS011;11719;51.052;6.982;2023-04-29T03:02:26;18.33;;;8.23;;
16242;SDS011;11719;51.052;6.982;2023-04-29T03:04:51;20.40;;;8.20;;
16242;SDS011;11719;51.052;6.982;2023-04-29T03:07:17;18.30;;;8.30;;
16242;SDS011;11719;51.052;6.982;2023-04-29T03:09:43;13.90;;;6.10;;
16242;SDS011;11719;51.052;6.982;2023-04-29T03:12:09;15.83;;;7.13;;
16242;SDS011;11719;51.052;6.982;2023-04-29T03:14:35;20.53;;;7.83;;
16242;SDS011;11719;51.052;6.982;2023-04-29T03:17:01;17.33;;;6.00;;
16242;SDS011;11719;51.052;6.982;2023-04-29T03:19:27;20.27;;;7.00;;
16242;SDS011;11719;51.052;6.982;2023-04-29T03:21:52;16.63;;;7.37;;
16242;SDS011;11719;51.052;6.982;2023-04-29T03:24:18;20.13;;;7.33;;
16242;SDS011;11719;51.052;6.982;2023-04-29T03:26:44;18.53;;;7.37;;
16242;SDS011;11719;51.052;6.982;2023-04-29T03:29:10;14.03;;;6.77;;
16242;SDS011;11719;51.052;6.982;2023-04-29T03:31:36;14.77;;;6.40;;
16242;SDS011;11719;51.052;6.982;2023-04-29T03:34:01;14.20;;;6.73;;
16242;SDS011;11719;51.052;6.982;2023-04-29T03:36:28;12.30;;;5.73;;
16242;SDS011;11719;51.052;6.982;2023-04-29T03:38:54;12.27;;;5.93;;
16242;SDS011;11719;51.052;6.982;2023-04-29T03:41:19;14.73;;;6.40;;
16242;SDS011;11719;51.052;6.982;2023-04-29T03:43:47;16.40;;;6.70;;
16242;SDS011;11719;51.052;6.982;2023-04-29T03:46:12;19.73;;;6.63;;
16242;SDS011;11719;51.052;6.982;2023-04-29T03:48:38;10.13;;;4.70;;
16242;SDS011;11719;51.052;6.982;2023-04-29T03:51:05;12.30;;;5.90;;
16242;SDS011;11719;51.052;6.982;2023-04-29T03:53:30;14.93;;;4.90;;
16242;SDS011;11719;51.052;6.982;2023-04-29T03:55:57;16.50;;;6.70;;
16242;SDS011;11719;51.052;6.982;2023-04-29T03:58:23;15.60;;;5.70;;
16242;SDS011;11719;51.052;6.982;2023-04-29T04:00:48;17.50;;;7.10;;
16242;SDS011;11719;51.052;6.982;2023-04-29T04:03:14;15.50;;;6.47;;
16242;SDS011;11719;51.052;6.982;2023-04-29T04:05:40;19.67;;;5.50;;
16242;SDS011;11719;51.052;6.982;2023-04-29T04:08:06;16.50;;;6.10;;
16242;SDS011;11719;51.052;6.982;2023-04-29T04:10:31;12.03;;;5.87;;
16242;SDS011;11719;51.052;6.982;2023-04-29T04:12:57;15.00;;;5.87;;
16242;SDS011;11719;51.052;6.982;2023-04-29T04:15:23;15.90;;;6.70;;
16242;SDS011;11719;51.052;6.982;2023-04-29T04:17:49;10.30;;;4.07;;
16242;SDS011;11719;51.052;6.982;2023-04-29T04:20:15;16.00;;;6.40;;
16242;SDS011;11719;51.052;6.982;2023-04-29T04:22:41;10.73;;;5.37;;
16242;SDS011;11719;51.052;6.982;2023-04-29T04:25:07;14.70;;;5.93;;
16242;SDS011;11719;51.052;6.982;2023-04-29T04:27:33;16.60;;;6.00;;
16242;SDS011;11719;51.052;6.982;2023-04-29T04:29:59;14.57;;;6.17;;
16242;SDS011;11719;51.052;6.982;2023-04-29T04:32:25;14.33;;;5.63;;
16242;SDS011;11719;51.052;6.982;2023-04-29T04:34:51;12.33;;;5.90;;
16242;SDS011;11719;51.052;6.982;2023-04-29T04:37:16;15.17;;;5.87;;
16242;SDS011;11719;51.052;6.982;2023-04-29T04:39:42;14.53;;;6.00;;
16242;SDS011;11719;51.052;6.982;2023-04-29T04:42:08;11.83;;;5.17;;
16242;SDS011;11719;51.052;6.982;2023-04-29T04:44:34;12.90;;;5.37;;
16242;SDS011;11719;51.052;6.982;2023-04-29T04:47:00;9.80;;;4.83;;
16242;SDS011;11719;51.052;6.982;2023-04-29T04:49:26;16.60;;;6.30;;
16242;SDS011;11719;51.052;6.982;2023-04-29T04:51:52;13.03;;;5.60;;
16242;SDS011;11719;51.052;6.982;2023-04-29T04:54:18;13.30;;;6.17;;
16242;SDS011;11719;51.052;6.982;2023-04-29T04:56:44;13.97;;;5.53;;
16242;SDS011;11719;51.052;6.982;2023-04-29T04:59:10;10.57;;;5.40;;
16242;SDS011;11719;51.052;6.982;2023-04-29T05:01:36;12.93;;;5.03;;
16242;SDS011;11719;51.052;6.982;2023-04-29T05:04:01;13.63;;;5.73;;
16242;SDS011;11719;51.052;6.982;2023-04-29T05:06:27;12.13;;;4.47;;
16242;SDS011;11719;51.052;6.982;2023-04-29T05:08:53;13.33;;;5.60;;
16242;SDS011;11719;51.052;6.982;2023-04-29T05:11:20;12.70;;;4.23;;
16242;SDS011;11719;51.052;6.982;2023-04-29T05:13:46;13.87;;;5.30;;
16242;SDS011;11719;51.052;6.982;2023-04-29T05:16:12;11.13;;;4.50;;
16242;SDS011;11719;51.052;6.982;2023-04-29T05:18:38;10.13;;;4.27;;
16242;SDS011;11719;51.052;6.982;2023-04-29T05:21:04;9.80;;;4.97;;
16242;SDS011;11719;51.052;6.982;2023-04-29T05:23:30;9.37;;;3.80;;
16242;SDS011;11719;51.052;6.982;2023-04-29T05:25:56;9.60;;;4.37;;
16242;SDS011;11719;51.052;6.982;2023-04-29T05:28:22;10.03;;;4.20;;
16242;SDS011;11719;51.052;6.982;2023-04-29T05:30:51;11.00;;;4.77;;
16242;SDS011;11719;51.052;6.982;2023-04-29T05:33:17;10.33;;;4.17;;
16242;SDS011;11719;51.052;6.982;2023-04-29T05:35:43;9.93;;;4.50;;
16242;SDS011;11719;51.052;6.982;2023-04-29T05:38:08;10.10;;;4.13;;
16242;SDS011;11719;51.052;6.982;2023-04-29T05:40:34;9.47;;;3.50;;
16242;SDS011;11719;51.052;6.982;2023-04-29T05:43:00;7.17;;;3.80;;
16242;SDS011;11719;51.052;6.982;2023-04-29T05:45:26;8.63;;;3.70;;
16242;SDS011;11719;51.052;6.982;2023-04-29T05:47:52;7.83;;;3.87;;
16242;SDS011;11719;51.052;6.982;2023-04-29T05:50:18;6.40;;;3.20;;
16242;SDS011;11719;51.052;6.982;2023-04-29T05:52:43;8.40;;;3.80;;
16242;SDS011;11719;51.052;6.982;2023-04-29T05:55:09;8.53;;;3.27;;
16242;SDS011;11719;51.052;6.982;2023-04-29T05:57:35;7.03;;;3.33;;
16242;SDS011;11719;51.052;6.982;2023-04-29T06:00:01;6.70;;;3.50;;
16242;SDS011;11719;51.052;6.982;2023-04-29T06:02:27;9.03;;;4.37;;
16242;SDS011;11719;51.052;6.982;2023-04-29T06:04:54;6.77;;;3.63;;
16242;SDS011;11719;51.052;6.982;2023-04-29T06:07:19;7.00;;;3.37;;
16242;SDS011;11719;51.052;6.982;2023-04-29T06:09:45;7.00;;;3.63;;
16242;SDS011;11719;51.052;6.982;2023-04-29T06:12:11;7.10;;;3.27;;
16242;SDS011;11719;51.052;6.982;2023-04-29T06:14:37;7.40;;;3.00;;
16242;SDS011;11719;51.052;6.982;2023-04-29T06:17:03;7.10;;;3.07;;
16242;SDS011;11719;51.052;6.982;2023-04-29T06:19:29;5.20;;;3.37;;
16242;SDS011;11719;51.052;6.982;2023-04-29T06:21:56;7.77;;;3.27;;
16242;SDS011;11719;51.052;6.982;2023-04-29T06:24:22;7.30;;;3.53;;
16242;SDS011;11719;51.052;6.982;2023-04-29T06:26:48;7.93;;;3.63;;
16242;SDS011;11719;51.052;6.982;2023-04-29T06:29:14;7.33;;;4.03;;
16242;SDS011;11719;51.052;6.982;2023-04-29T06:31:40;7.60;;;2.83;;
16242;SDS011;11719;51.052;6.982;2023-04-29T06:34:06;5.83;;;3.37;;
16242;SDS011;11719;51.052;6.982;2023-04-29T06:36:32;7.90;;;3.87;;
16242;SDS011;11719;51.052;6.982;2023-04-29T06:38:58;9.97;;;3.50;;
16242;SDS011;11719;51.052;6.982;2023-04-29T06:41:23;8.17;;;3.70;;
16242;SDS011;11719;51.052;6.982;2023-04-29T06:43:49;5.87;;;3.07;;
16242;SDS011;11719;51.052;6.982;2023-04-29T06:46:15;8.17;;;4.53;;
16242;SDS011;11719;51.052;6.982;2023-04-29T06:48:41;8.97;;;4.03;;
16242;SDS011;11719;51.052;6.982;2023-04-29T06:51:07;9.27;;;4.33;;
16242;SDS011;11719;51.052;6.982;2023-04-29T06:53:33;7.30;;;3.67;;
16242;SDS011;11719;51.052;6.982;2023-04-29T06:55:58;9.03;;;4.87;;
16242;SDS011;11719;51.052;6.982;2023-04-29T06:58:24;7.97;;;4.20;;
16242;SDS011;11719;51.052;6.982;2023-04-29T07:00:50;10.07;;;3.97;;
16242;SDS011;11719;51.052;6.982;2023-04-29T07:03:16;8.67;;;4.30;;
16242;SDS011;11719;51.052;6.982;2023-04-29T07:05:42;7.13;;;4.20;;
16242;SDS011;11719;51.052;6.982;2023-04-29T07:08:12;10.90;;;4.63;;
16242;SDS011;11719;51.052;6.982;2023-04-29T07:10:38;10.30;;;4.30;;
16242;SDS011;11719;51.052;6.982;2023-04-29T07:13:05;10.50;;;3.80;;
16242;SDS011;11719;51.052;6.982;2023-04-29T07:15:34;9.80;;;4.20;;
16242;SDS011;11719;51.052;6.982;2023-04-29T07:18:04;9.67;;;4.27;;
16242;SDS011;11719;51.052;6.982;2023-04-29T07:20:30;8.80;;;4.50;;
16242;SDS011;11719;51.052;6.982;2023-04-29T07:22:56;8.50;;;4.60;;
16242;SDS011;11719;51.052;6.982;2023-04-29T07:25:23;8.30;;;3.83;;
16242;SDS011;11719;51.052;6.982;2023-04-29T07:27:50;9.03;;;4.73;;
16242;SDS011;11719;51.052;6.982;2023-04-29T07:30:16;6.53;;;3.60;;
16242;SDS011;11719;51.052;6.982;2023-04-29T07:32:42;9.80;;;4.40;;
16242;SDS011;11719;51.052;6.982;2023-04-29T07:35:08;9.63;;;3.87;;
16242;SDS011;11719;51.052;6.982;2023-04-29T07:37:34;10.90;;;4.47;;
16242;SDS011;11719;51.052;6.982;2023-04-29T07:40:00;9.17;;;4.87;;
16242;SDS011;11719;51.052;6.982;2023-04-29T07:42:25;10.70;;;4.37;;
16242;SDS011;11719;51.052;6.982;2023-04-29T07:44:51;8.10;;;4.20;;
16242;SDS011;11719;51.052;6.982;2023-04-29T07:47:17;5.03;;;3.07;;
16242;SDS011;11719;51.052;6.982;2023-04-29T07:49:43;8.07;;;4.40;;
16242;SDS011;11719;51.052;6.982;2023-04-29T07:52:09;8.47;;;3.67;;
16242;SDS011;11719;51.052;6.982;2023-04-29T07:54:35;8.37;;;3.83;;
16242;SDS011;11719;51.052;6.982;2023-04-29T07:57:01;6.77;;;4.00;;
16242;SDS011;11719;51.052;6.982;2023-04-29T07:59:28;4.93;;;2.77;;
16242;SDS011;11719;51.052;6.982;2023-04-29T08:01:57;5.90;;;3.10;;
16242;SDS011;11719;51.052;6.982;2023-04-29T08:04:23;7.37;;;3.27;;
16242;SDS011;11719;51.052;6.982;2023-04-29T08:06:49;5.97;;;3.50;;
16242;SDS011;11719;51.052;6.982;2023-04-29T08:09:15;8.97;;;3.50;;
16242;SDS011;11719;51.052;6.982;2023-04-29T08:11:41;7.80;;;3.60;;
16242;SDS011;11719;51.052;6.982;2023-04-29T08:14:08;8.27;;;4.17;;
16242;SDS011;11719;51.052;6.982;2023-04-29T08:16:34;7.37;;;3.43;;
16242;SDS011;11719;51.052;6.982;2023-04-29T08:19:00;6.97;;;3.30;;
16242;SDS011;11719;51.052;6.982;2023-04-29T08:21:26;9.30;;;4.00;;
16242;SDS011;11719;51.052;6.982;2023-04-29T08:23:52;6.87;;;3.20;;
16242;SDS011;11719;51.052;6.982;2023-04-29T08:26:19;6.50;;;2.93;;
16242;SDS011;11719;51.052;6.982;2023-04-29T08:28:46;6.80;;;3.07;;
16242;SDS011;11719;51.052;6.982;2023-04-29T08:31:18;6.77;;;3.20;;
16242;SDS011;11719;51.052;6.982;2023-04-29T08:33:45;6.77;;;3.10;;
16242;SDS011;11719;51.052;6.982;2023-04-29T08:36:12;6.57;;;3.27;;
16242;SDS011;11719;51.052;6.982;2023-04-29T08:38:38;7.57;;;3.33;;
16242;SDS011;11719;51.052;6.982;2023-04-29T08:41:06;6.83;;;3.40;;
16242;SDS011;11719;51.052;6.982;2023-04-29T08:43:35;6.93;;;3.30;;
16242;SDS011;11719;51.052;6.982;2023-04-29T08:46:04;7.43;;;3.90;;
16242;SDS011;11719;51.052;6.982;2023-04-29T08:48:31;8.33;;;3.73;;
16242;SDS011;11719;51.052;6.982;2023-04-29T08:50:59;10.40;;;4.13;;
16242;SDS011;11719;51.052;6.982;2023-04-29T08:53:26;5.93;;;2.90;;
16242;SDS011;11719;51.052;6.982;2023-04-29T08:55:52;6.13;;;3.77;;
16242;SDS011;11719;51.052;6.982;2023-04-29T08:58:20;6.50;;;3.23;;
16242;SDS011;11719;51.052;6.982;2023-04-29T09:00:47;6.50;;;3.70;;
16242;SDS011;11719;51.052;6.982;2023-04-29T09:03:21;6.67;;;3.40;;
16242;SDS011;11719;51.052;6.982;2023-04-29T09:05:58;8.43;;;4.60;;
16242;SDS011;11719;51.052;6.982;2023-04-29T09:08:25;10.63;;;4.20;;
16242;SDS011;11719;51.052;6.982;2023-04-29T09:10:52;10.17;;;4.77;;
16242;SDS011;11719;51.052;6.982;2023-04-29T09:13:24;10.10;;;4.43;;
16242;SDS011;11719;51.052;6.982;2023-04-29T09:15:54;8.33;;;3.97;;
16242;SDS011;11719;51.052;6.982;2023-04-29T09:23:50;5.00;;;2.47;;
16242;SDS011;11719;51.052;6.982;2023-04-29T09:26:22;7.67;;;5.07;;
16242;SDS011;11719;51.052;6.982;2023-04-29T09:29:05;13.03;;;5.63;;
16242;SDS011;11719;51.052;6.982;2023-04-29T09:31:33;11.13;;;5.03;;
16242;SDS011;11719;51.052;6.982;2023-04-29T09:33:59;7.77;;;4.57;;
16242;SDS011;11719;51.052;6.982;2023-04-29T09:36:41;7.77;;;4.23;;
16242;SDS011;11719;51.052;6.982;2023-04-29T09:44:17;5.90;;;3.60;;
16242;SDS011;11719;51.052;6.982;2023-04-29T09:46:56;11.50;;;5.40;;
16242;SDS011;11719;51.052;6.982;2023-04-29T09:49:43;8.43;;;4.83;;
16242;SDS011;11719;51.052;6.982;2023-04-29T09:52:14;9.17;;;4.50;;
16242;SDS011;11719;51.052;6.982;2023-04-29T09:54:42;9.93;;;5.40;;
16242;SDS011;11719;51.052;6.982;2023-04-29T09:57:09;10.70;;;5.70;;
16242;SDS011;11719;51.052;6.982;2023-04-29T09:59:38;11.27;;;5.60;;
16242;SDS011;11719;51.052;6.982;2023-04-29T10:02:12;10.70;;;5.93;;
16242;SDS011;11719;51.052;6.982;2023-04-29T10:04:52;10.73;;;5.83;;
16242;SDS011;11719;51.052;6.982;2023-04-29T10:07:21;15.30;;;6.27;;
16242;SDS011;11719;51.052;6.982;2023-04-29T10:09:47;14.20;;;6.83;;
16242;SDS011;11719;51.052;6.982;2023-04-29T10:12:16;12.93;;;6.47;;
16242;SDS011;11719;51.052;6.982;2023-04-29T10:14:59;16.93;;;7.73;;
16242;SDS011;11719;51.052;6.982;2023-04-29T10:17:32;15.40;;;7.57;;
16242;SDS011;11719;51.052;6.982;2023-04-29T10:20:13;24.67;;;9.70;;
16242;SDS011;11719;51.052;6.982;2023-04-29T10:22:47;17.27;;;8.00;;
16242;SDS011;11719;51.052;6.982;2023-04-29T10:25:23;21.47;;;9.50;;
16242;SDS011;11719;51.052;6.982;2023-04-29T10:27:50;23.93;;;11.90;;
16242;SDS011;11719;51.052;6.982;2023-04-29T10:30:18;21.93;;;9.73;;
16242;SDS011;11719;51.052;6.982;2023-04-29T10:32:46;24.03;;;10.10;;
16242;SDS011;11719;51.052;6.982;2023-04-29T10:35:15;27.80;;;11.67;;
16242;SDS011;11719;51.052;6.982;2023-04-29T10:37:46;22.43;;;10.10;;
16242;SDS011;11719;51.052;6.982;2023-04-29T10:40:14;24.37;;;9.77;;
16242;SDS011;11719;51.052;6.982;2023-04-29T10:42:54;29.73;;;11.03;;
16242;SDS011;11719;51.052;6.982;2023-04-29T10:45:22;23.87;;;10.03;;
16242;SDS011;11719;51.052;6.982;2023-04-29T10:53:13;20.07;;;9.77;;
16242;SDS011;11719;51.052;6.982;2023-04-29T10:55:45;24.93;;;11.73;;
16242;SDS011;11719;51.052;6.982;2023-04-29T11:00:59;17.00;;;8.43;;
16242;SDS011;11719;51.052;6.982;2023-04-29T11:11:45;24.87;;;10.13;;
16242;SDS011;11719;51.052;6.982;2023-04-29T11:14:13;23.67;;;10.60;;
16242;SDS011;11719;51.052;6.982;2023-04-29T11:16:56;24.40;;;9.77;;
16242;SDS011;11719;51.052;6.982;2023-04-29T11:19:29;23.13;;;10.60;;
16242;SDS011;11719;51.052;6.982;2023-04-29T11:24:47;20.83;;;9.17;;
16242;SDS011;11719;51.052;6.982;2023-04-29T11:27:14;21.17;;;9.40;;
16242;SDS011;11719;51.052;6.982;2023-04-29T11:29:40;12.77;;;7.00;;
16242;SDS011;11719;51.052;6.982;2023-04-29T11:32:06;11.10;;;6.33;;
16242;SDS011;11719;51.052;6.982;2023-04-29T11:34:32;18.57;;;9.63;;
16242;SDS011;11719;51.052;6.982;2023-04-29T11:36:58;19.10;;;8.97;;
16242;SDS011;11719;51.052;6.982;2023-04-29T11:39:25;21.80;;;8.53;;
16242;SDS011;11719;51.052;6.982;2023-04-29T11:42:01;10.20;;;6.27;;
16242;SDS011;11719;51.052;6.982;2023-04-29T11:44:29;16.50;;;8.77;;
16242;SDS011;11719;51.052;6.982;2023-04-29T11:47:01;10.17;;;5.00;;
16242;SDS011;11719;51.052;6.982;2023-04-29T11:49:31;14.70;;;7.53;;
16242;SDS011;11719;51.052;6.982;2023-04-29T11:51:58;14.53;;;6.10;;
16242;SDS011;11719;51.052;6.982;2023-04-29T11:54:33;9.67;;;5.40;;
16242;SDS011;11719;51.052;6.982;2023-04-29T11:56:59;14.83;;;6.57;;
16242;SDS011;11719;51.052;6.982;2023-04-29T11:59:29;14.67;;;6.57;;
16242;SDS011;11719;51.052;6.982;2023-04-29T12:01:57;17.50;;;7.30;;
16242;SDS011;11719;51.052;6.982;2023-04-29T12:04:24;16.23;;;7.00;;
16242;SDS011;11719;51.052;6.982;2023-04-29T12:06:50;13.60;;;6.23;;
16242;SDS011;11719;51.052;6.982;2023-04-29T12:09:17;18.30;;;6.77;;
16242;SDS011;11719;51.052;6.982;2023-04-29T12:11:43;13.43;;;6.97;;
16242;SDS011;11719;51.052;6.982;2023-04-29T12:14:11;13.83;;;6.57;;
16242;SDS011;11719;51.052;6.982;2023-04-29T12:16:38;16.07;;;6.63;;
16242;SDS011;11719;51.052;6.982;2023-04-29T12:19:04;15.83;;;6.70;;
16242;SDS011;11719;51.052;6.982;2023-04-29T12:21:32;15.57;;;7.57;;
16242;SDS011;11719;51.052;6.982;2023-04-29T12:23:58;13.17;;;5.90;;
16242;SDS011;11719;51.052;6.982;2023-04-29T12:26:26;9.23;;;5.03;;
16242;SDS011;11719;51.052;6.982;2023-04-29T12:28:55;18.33;;;7.17;;
16242;SDS011;11719;51.052;6.982;2023-04-29T12:31:23;13.53;;;6.40;;
16242;SDS011;11719;51.052;6.982;2023-04-29T12:33:57;13.23;;;7.07;;
16242;SDS011;11719;51.052;6.982;2023-04-29T12:36:23;18.00;;;6.80;;
16242;SDS011;11719;51.052;6.982;2023-04-29T12:38:49;13.43;;;6.57;;
16242;SDS011;11719;51.052;6.982;2023-04-29T12:41:18;15.73;;;7.17;;
16242;SDS011;11719;51.052;6.982;2023-04-29T12:43:45;12.47;;;5.60;;
16242;SDS011;11719;51.052;6.982;2023-04-29T12:46:13;8.63;;;4.23;;
16242;SDS011;11719;51.052;6.982;2023-04-29T12:48:40;14.90;;;7.33;;
16242;SDS011;11719;51.052;6.982;2023-04-29T12:51:08;16.53;;;7.57;;
16242;SDS011;11719;51.052;6.982;2023-04-29T12:53:35;11.57;;;5.70;;
16242;SDS011;11719;51.052;6.982;2023-04-29T12:56:01;11.20;;;4.87;;
16242;SDS011;11719;51.052;6.982;2023-04-29T12:58:27;16.93;;;7.33;;
16242;SDS011;11719;51.052;6.982;2023-04-29T13:00:58;14.67;;;7.17;;
16242;SDS011;11719;51.052;6.982;2023-04-29T13:03:24;8.27;;;4.00;;
16242;SDS011;11719;51.052;6.982;2023-04-29T13:05:50;12.60;;;7.13;;
16242;SDS011;11719;51.052;6.982;2023-04-29T13:08:18;14.40;;;7.70;;
16242;SDS011;11719;51.052;6.982;2023-04-29T13:10:44;10.97;;;6.33;;
16242;SDS011;11719;51.052;6.982;2023-04-29T13:13:10;14.37;;;6.87;;
16242;SDS011;11719;51.052;6.982;2023-04-29T13:15:36;10.33;;;6.30;;
16242;SDS011;11719;51.052;6.982;2023-04-29T13:18:05;16.07;;;6.93;;
16242;SDS011;11719;51.052;6.982;2023-04-29T13:20:31;13.20;;;6.57;;
16242;SDS011;11719;51.052;6.982;2023-04-29T13:22:57;15.03;;;6.47;;
16242;SDS011;11719;51.052;6.982;2023-04-29T13:25:23;9.67;;;4.83;;
16242;SDS011;11719;51.052;6.982;2023-04-29T13:27:49;14.80;;;7.03;;
16242;SDS011;11719;51.052;6.982;2023-04-29T13:30:15;11.60;;;6.50;;
16242;SDS011;11719;51.052;6.982;2023-04-29T13:32:41;12.27;;;6.43;;
16242;SDS011;11719;51.052;6.982;2023-04-29T13:35:08;16.40;;;7.07;;
16242;SDS011;11719;51.052;6.982;2023-04-29T13:37:34;14.50;;;6.10;;
16242;SDS011;11719;51.052;6.982;2023-04-29T13:40:00;12.00;;;6.03;;
16242;SDS011;11719;51.052;6.982;2023-04-29T13:42:25;15.53;;;7.10;;
16242;SDS011;11719;51.052;6.982;2023-04-29T13:44:51;13.53;;;6.47;;
16242;SDS011;11719;51.052;6.982;2023-04-29T13:47:21;12.43;;;5.90;;
16242;SDS011;11719;51.052;6.982;2023-04-29T13:49:47;14.33;;;7.17;;
16242;SDS011;11719;51.052;6.982;2023-04-29T13:52:13;14.77;;;6.93;;
16242;SDS011;11719;51.052;6.982;2023-04-29T13:54:39;12.47;;;6.00;;
16242;SDS011;11719;51.052;6.982;2023-04-29T13:57:05;14.67;;;6.53;;
16242;SDS011;11719;51.052;6.982;2023-04-29T13:59:31;13.17;;;6.63;;
16242;SDS011;11719;51.052;6.982;2023-04-29T14:01:59;12.23;;;6.03;;
16242;SDS011;11719;51.052;6.982;2023-04-29T14:04:25;11.93;;;6.17;;
16242;SDS011;11719;51.052;6.982;2023-04-29T14:06:52;11.77;;;5.73;;
16242;SDS011;11719;51.052;6.982;2023-04-29T14:09:19;12.60;;;6.53;;
16242;SDS011;11719;51.052;6.982;2023-04-29T14:11:46;10.97;;;6.23;;
16242;SDS011;11719;51.052;6.982;2023-04-29T14:14:14;11.43;;;5.93;;
16242;SDS011;11719;51.052;6.982;2023-04-29T14:16:40;11.33;;;6.17;;
16242;SDS011;11719;51.052;6.982;2023-04-29T14:19:07;10.33;;;5.83;;
16242;SDS011;11719;51.052;6.982;2023-04-29T14:21:33;13.37;;;7.10;;
16242;SDS011;11719;51.052;6.982;2023-04-29T14:23:59;13.00;;;6.53;;
16242;SDS011;11719;51.052;6.982;2023-04-29T14:26:26;8.80;;;4.03;;
16242;SDS011;11719;51.052;6.982;2023-04-29T14:28:53;12.17;;;6.40;;
16242;SDS011;11719;51.052;6.982;2023-04-29T14:31:26;13.40;;;6.97;;
16242;SDS011;11719;51.052;6.982;2023-04-29T14:33:57;10.70;;;6.10;;
16242;SDS011;11719;51.052;6.982;2023-04-29T14:36:23;12.30;;;6.33;;
16242;SDS011;11719;51.052;6.982;2023-04-29T14:38:50;6.87;;;4.33;;
16242;SDS011;11719;51.052;6.982;2023-04-29T14:41:16;7.47;;;4.60;;
16242;SDS011;11719;51.052;6.982;2023-04-29T14:43:43;12.47;;;6.37;;
16242;SDS011;11719;51.052;6.982;2023-04-29T14:46:09;15.87;;;7.37;;
16242;SDS011;11719;51.052;6.982;2023-04-29T14:48:35;9.03;;;5.30;;
16242;SDS011;11719;51.052;6.982;2023-04-29T14:51:00;11.67;;;6.63;;
16242;SDS011;11719;51.052;6.982;2023-04-29T14:53:26;12.37;;;6.73;;
16242;SDS011;11719;51.052;6.982;2023-04-29T14:55:52;13.33;;;6.90;;
16242;SDS011;11719;51.052;6.982;2023-04-29T14:58:18;11.73;;;6.97;;
16242;SDS011;11719;51.052;6.982;2023-04-29T15:00:44;8.10;;;5.03;;
16242;SDS011;11719;51.052;6.982;2023-04-29T15:03:09;14.30;;;6.50;;
16242;SDS011;11719;51.052;6.982;2023-04-29T15:05:36;10.93;;;6.20;;
16242;SDS011;11719;51.052;6.982;2023-04-29T15:08:02;7.13;;;3.60;;
16242;SDS011;11719;51.052;6.982;2023-04-29T15:10:28;9.70;;;5.67;;
16242;SDS011;11719;51.052;6.982;2023-04-29T15:12:54;5.67;;;3.60;;
16242;SDS011;11719;51.052;6.982;2023-04-29T15:15:20;6.13;;;3.27;;
16242;SDS011;11719;51.052;6.982;2023-04-29T15:17:47;10.50;;;5.50;;
16242;SDS011;11719;51.052;6.982;2023-04-29T15:20:13;11.60;;;5.97;;